Weather observations for the past three days for
INDEPENDENCE
Imperial (Metric)
Date Time (cdt) Wind (mph) Vis. (mi.) Weather Sky Cond. Temperature (ºF) Relative Humidity Wind Chill (°F) Heat Index (°F) Pressure Precipitation (in)
Air Dwpt 6 hour altimeter (in) sea level (mb) 1 hr 3 hr 6 hr
Max. Min.
06 09:55 NE 13 10.00 Partly Cloudy SCT032 SCT075 53.6 42.8 67% 30.05 0.0
06 09:35 NE 10 G 17 10.00 Mostly Cloudy BKN075 53.6 41 63% 30.07 0.0
06 09:15 N 13 10.00 Partly Cloudy SCT065 53.6 42.8 67% 30.07 0.0
06 08:55 NE 12 10.00 Partly Cloudy SCT065 SCT110 51.8 41 67% 30.08 0.0
06 08:35 NE 10 10.00 Mostly Cloudy BKN110 50 42.8 76% 46 30.08 0.0
06 08:15 NE 7 10.00 Partly Cloudy SCT080 SCT110 48.2 42.8 82% 46 30.07 0.0
06 07:55 NE 8 10.00 Overcast BKN060 OVC080 48.2 42.8 82% 45 30.06 0.0
06 07:35 NE 7 10.00 Overcast OVC060 46.4 42.8 87% 43 30.06 0.0
06 07:15 NE 6 10.00 Overcast OVC060 46.4 42.8 87% 44 30.05 0.0
06 06:55 E 5 10.00 Overcast OVC060 46.4 41 82% 45 30.03 0.0
06 06:35 NE 7 10.00 Overcast OVC060 46.4 41 82% 43 30.03 0.0
06 05:55 NE 12 10.00 Overcast OVC050 46.4 41 82% 42 30.04 0.0
06 05:35 NE 17 10.00 Overcast BKN050 OVC070 46.4 41 82% 40 30.02 0.0
06 05:15 N 12 10.00 Overcast BKN050 OVC070 46.4 42.8 87% 42 30.02 0.0
06 04:55 N 12 10.00 Overcast OVC048 46.4 42.8 87% 42 30.02 0.0
06 04:35 N 8 10.00 Overcast SCT026 OVC048 46.4 44.6 93% 43 30 0.0
06 04:15 N 6 10.00 Mostly Cloudy SCT021 BKN026 BKN047 44.6 44.6 100% 42 30.01 0.0
06 03:55 N 5 10.00 Mostly Cloudy BKN110 44.6 44.6 100% 43 29.98 0.0
06 03:35 N 6 10.00 Mostly Cloudy BKN110 44.6 44.6 100% 42 29.96 0.0
06 03:15 N 7 10.00 Partly Cloudy SCT110 44.6 42.8 93% 41 29.96 0.0
06 02:55 NE 7 10.00 Light Rain SCT040 SCT050 BKN110 44.6 42.8 93% 41 29.96 0.0
06 02:35 NE 8 10.00 Light Rain SCT041 SCT060 BKN095 44.6 42.8 93% 41 29.96 0.0
06 02:15 NE 8 10.00 Light Rain SCT060 SCT110 46.4 42.8 87% 43 29.95 0.0
06 01:55 N 8 10.00 Overcast OVC060 46.4 44.6 93% 43 29.96 0.0
06 01:35 N 8 10.00 Overcast OVC060 46.4 44.6 93% 43 29.95 0.0
06 01:15 NE 8 10.00 Overcast OVC060 46.4 44.6 93% 43 29.95 0.0
06 00:55 NE 6 10.00 Overcast OVC060 46.4 44.6 93% 44 29.95 0.0
06 00:15 NE 7 10.00 Overcast OVC060 46.4 44.6 93% 43 29.96 0.0
05 23:55 N 6 10.00 Overcast OVC060 46.4 44.6 93% 44 29.97 0.0
05 23:35 NE 5 10.00 Overcast OVC060 46.4 44.6 93% 45 29.96 0.0
05 23:15 N 3 10.00 Overcast OVC060 46.4 44.6 93% 29.97 0.0
05 22:55 NE 7 10.00 Overcast OVC060 46.4 44.6 93% 43 29.96 0.0
05 22:35 N 3 10.00 Overcast OVC060 46.4 44.6 93% 29.96 0.0
05 22:15 NE 6 10.00 Overcast OVC060 46.4 42.8 87% 44 29.95 0.0
05 21:55 NE 8 10.00 Overcast OVC050 46.4 42.8 87% 43 29.94 0.0
05 21:35 N 7 10.00 Overcast OVC050 46.4 42.8 87% 43 29.93 0.0
05 21:15 N 9 10.00 Light Rain OVC060 46.4 42.8 87% 42 29.92 0.0
05 20:55 N 8 10.00 Overcast OVC060 46.4 42.8 87% 43 29.91 0.0 0.09
05 20:35 NE 10 10.00 Light Rain OVC060 46.4 42.8 87% 42 29.89 0.0 0.09
05 20:15 NE 10 10.00 Rain SCT045 OVC050 46.4 42.8 87% 42 29.89 0.0 0.04
05 19:55 NE 15 10.00 Light Rain OVC043 46.4 41 82% 41 29.88 0.0
05 19:35 NE 21 G 25 10.00 Overcast and Breezy BKN043 OVC050 48.2 39.2 71% 42 29.87 0.0
05 19:15 NE 17 G 26 10.00 Overcast OVC043 48.2 39.2 71% 42 29.88 0.0
05 18:55 NE 17 G 24 10.00 Overcast BKN041 OVC050 48.2 41 76% 42 29.87 0.0
05 18:35 NE 21 G 29 10.00 Overcast and Breezy BKN041 OVC050 48.2 41 76% 42 29.86 0.0
05 18:15 NE 22 10.00 Light Rain and Breezy OVC039 48.2 41 76% 41 29.86 0.0
05 17:55 NE 21 10.00 Overcast and Breezy BKN037 OVC046 50 41 71% 44 29.86 0.0
05 17:35 NE 17 G 21 10.00 Overcast SCT018 SCT024 OVC047 50 42.8 76% 45 29.85 0.0
05 17:15 NE 16 10.00 Overcast BKN020 BKN025 OVC045 48.2 44.6 87% 43 29.85 0.0
05 16:55 N 17 G 25 10.00 Overcast BKN022 OVC027 50 42.8 76% 45 29.85 0.0
05 16:35 NE 21 G 30 10.00 Overcast and Breezy SCT025 BKN034 OVC043 50 42.8 76% 44 29.85 0.0
05 16:15 NE 16 G 24 10.00 Light Drizzle OVC041 50 42.8 76% 45 29.85 0.0
05 15:55 NE 18 G 25 10.00 Overcast OVC039 50 42.8 76% 44 29.85 0.0
05 15:35 NE 15 G 21 10.00 Overcast OVC039 50 41 71% 45 29.85 0.0
05 15:15 NE 21 G 31 10.00 Overcast and Breezy OVC038 50 41 71% 44 29.85 0.0
05 14:35 NE 23 G 26 10.00 Overcast and Breezy SCT035 OVC040 50 42.8 76% 44 29.85 0.0
05 14:15 NE 26 G 33 10.00 Light Rain and Windy OVC040 51.8 41 67% 29.83 0.0
05 13:55 NE 24 G 36 10.00 Overcast and Breezy OVC038 50 41 71% 43 29.84 0.0
05 13:35 NE 26 G 35 10.00 Light Rain and Windy OVC036 51.8 41 67% 29.82 0.0
05 13:15 NE 21 G 29 10.00 Light Rain and Breezy OVC036 51.8 42.8 72% 29.82 0.0
05 12:55 NE 21 G 37 10.00 Overcast and Breezy OVC038 51.8 42.8 72% 29.82 0.0
05 12:35 NE 20 G 33 10.00 Light Rain OVC038 51.8 44.6 77% 29.81 0.0
05 12:15 NE 24 G 28 10.00 Overcast and Breezy OVC036 51.8 42.8 72% 29.8 0.0
05 11:55 NE 21 G 32 10.00 Overcast and Breezy OVC036 51.8 42.8 72% 29.8 0.0
05 11:35 NE 21 G 29 10.00 Overcast and Breezy OVC034 51.8 44.6 77% 29.79 0.0
05 11:15 NE 18 G 31 10.00 Overcast OVC036 51.8 44.6 77% 29.78 0.0
05 10:55 NE 22 G 35 10.00 Light Rain and Breezy OVC036 50 44.6 82% 44 29.77 0.0
05 10:35 NE 23 G 28 10.00 Light Rain and Breezy BKN036 OVC042 50 46.4 88% 44 29.78 0.0
05 10:15 NE 24 G 28 10.00 Light Rain and Breezy SCT017 OVC040 50 48.2 94% 43 29.79 0.0
05 09:55 NE 20 G 26 0.00 NULL NULL 50 48.2 94% 44 29.78 0.0 0.02
05 09:35 N 21 10.00 Light Rain and Breezy OVC031 50 48.2 94% 44 29.78 0.0 0.01
05 09:15 NE 22 G 33 10.00 Rain and Breezy SCT031 OVC039 51.8 46.4 82% 29.76 0.0
05 08:55 NE 23 G 30 10.00 Overcast and Breezy OVC041 51.8 46.4 82% 29.76 0.0
05 08:35 NE 20 G 31 10.00 Overcast SCT018 OVC041 53.6 48.2 82% 29.74 0.0
05 08:15 NE 20 G 29 10.00 Overcast OVC018 53.6 48.2 82% 29.73 0.0
05 07:55 NE 20 G 25 10.00 Overcast OVC016 53.6 48.2 82% 29.72 0.0
05 07:35 NE 26 G 32 10.00 Overcast and Windy BKN014 OVC036 53.6 50 88% 29.72 0.0
05 07:15 NE 22 G 33 10.00 Overcast and Breezy BKN014 OVC036 55.4 50 82% 29.72 0.0
05 06:55 NE 17 G 23 10.00 Overcast BKN014 OVC036 57.2 51.8 82% 29.71 0.0
05 06:35 NE 18 G 26 10.00 Overcast SCT014 OVC036 57.2 51.8 82% 29.69 0.0
05 06:15 NE 20 G 23 10.00 Overcast SCT017 BKN034 OVC040 59 53.6 82% 29.68 0.0
05 05:55 NE 15 10.00 Overcast SCT017 BKN024 OVC042 59 55.4 88% 29.67 0.0
05 05:35 NE 20 10.00 Overcast SCT015 SCT021 OVC040 60.8 57.2 88% 29.66 0.0
05 05:15 N 9 10.00 Overcast OVC040 62.6 59 88% 29.67 0.0
05 04:55 NE 13 10.00 Overcast OVC040 62.6 59 88% 29.66 0.0
05 04:35 NE 12 10.00 Overcast OVC040 60.8 57.2 88% 29.66 0.0
05 04:15 NE 12 10.00 Overcast OVC040 60.8 57.2 88% 29.65 0.0
05 03:55 E 12 10.00 Overcast OVC044 60.8 57.2 88% 29.64 0.0
05 03:35 N 13 G 18 10.00 Overcast SCT044 OVC060 62.6 57.2 83% 29.64 0.0
05 03:15 SE 14 10.00 Thunderstorm in Vicinity OVC055 62.6 57.2 83% 29.6 0.0
05 02:55 E 17 10.00 Overcast OVC055 62.6 57.2 83% 29.61 0.0
05 02:35 SE 17 10.00 Thunderstorm Light Rain in Vicinity OVC055 62.6 57.2 83% 29.61 0.0
05 02:15 SE 9 10.00 Rain BKN065 OVC090 60.8 57.2 88% 29.62 0.0
05 01:55 SE 17 10.00 Overcast SCT075 OVC100 60.8 57.2 88% 29.61 0.0 0.06
05 01:35 SE 15 10.00 Light Rain OVC100 60.8 57.2 88% 29.63 0.0 0.06
05 01:15 S 15 10.00 Rain OVC100 59 57.2 94% 29.65 0.0 0.06
05 00:55 S 20 10.00 Light Rain SCT015 SCT048 BKN110 59 57.2 94% 29.64 0.0 0.06
05 00:35 S 22 10.00 Thunderstorm Light Rain in Vicinity and Breezy OVC110 60.8 57.2 88% 29.65 0.0 0.05
05 00:15 S 21 G 29 10.00 Rain and Breezy OVC095 60.8 59 94% 29.68 0.0 0.04
04 23:55 S 18 10.00 Thunderstorm Rain SCT060 OVC095 64.4 60.8 88% 29.7 0.0 0.09
04 23:35 S 20 G 28 7.00 Thunderstorm Heavy Rain SCT048 SCT070 OVC095 66.2 60.8 83% 29.67 0.0 0.05
04 23:15 S 14 10.00 Thunderstorm Rain BKN046 BKN055 BKN100 69.8 59 69% 29.66 0.0
04 22:55 S 10 10.00 Partly Cloudy SCT046 69.8 57.2 64% 29.67 0.0
04 22:35 S 12 10.00 Thunderstorm in Vicinity CLR 69.8 57.2 64% 29.63 0.0
04 22:15 S 13 10.00 Fair CLR 69.8 59 69% 29.63 0.0
04 21:55 S 12 10.00 Fair CLR 69.8 59 69% 29.64 0.0
04 21:35 S 12 10.00 Fair CLR 69.8 59 69% 29.64 0.0
04 21:15 S 10 10.00 Fair CLR 69.8 59 69% 29.63 0.0
04 20:55 S 12 10.00 Fair CLR 69.8 59 69% 29.63 0.0
04 20:35 S 13 10.00 Fair CLR 71.6 59 65% 29.61 0.0
04 20:15 SE 13 10.00 Fair CLR 71.6 59 65% 29.61 0.0
04 19:55 SE 12 10.00 Fair CLR 71.6 60.8 69% 29.61 0.0
04 19:35 S 10 G 18 10.00 Fair CLR 73.4 60.8 65% 29.61 0.0
04 19:15 S 14 10.00 Partly Cloudy SCT050 75.2 60.8 61% 77 29.62 0.0
04 18:55 S 16 10.00 Partly Cloudy SCT050 75.2 60.8 61% 77 29.63 0.0
04 18:35 S 17 10.00 Partly Cloudy SCT050 75.2 60.8 61% 77 29.62 0.0
04 18:15 S 18 G 25 10.00 Partly Cloudy SCT050 77 60.8 57% 79 29.62 0.0
04 17:55 S 20 G 24 10.00 Partly Cloudy SCT050 77 60.8 57% 79 29.61 0.0
04 17:35 S 15 G 23 10.00 Mostly Cloudy BKN050 78.8 60.8 54% 80 29.61 0.0
04 17:15 S 14 10.00 Mostly Cloudy BKN050 78.8 62.6 58% 80 29.62 0.0
04 16:55 S 17 10.00 Partly Cloudy SCT050 80.6 60.8 51% 81 29.62 0.0
04 16:35 S 18 10.00 Fair CLR 80.6 60.8 51% 81 29.62 0.0
04 16:15 S 17 G 24 10.00 Fair CLR 82.4 60.8 48% 83 29.62 0.0
04 15:55 S 16 10.00 Fair CLR 82.4 59 45% 82 29.62 0.0
04 15:35 SW 20 G 26 10.00 Fair CLR 80.6 59 48% 81 29.63 0.0
04 15:15 S 23 10.00 Fair and Breezy CLR 82.4 59 45% 82 29.64 0.0
04 14:55 SW 22 G 28 10.00 Fair and Breezy CLR 82.4 59 45% 82 29.65 0.0
04 14:35 SW 26 G 33 10.00 Fair and Windy CLR 82.4 59 45% 82 29.66 0.0
04 14:15 SW 21 G 28 10.00 Fair and Breezy CLR 80.6 59 48% 81 29.66 0.0
04 13:55 SW 20 10.00 Fair CLR 80.6 59 48% 81 29.66 0.0
04 13:35 SW 18 10.00 Fair CLR 80.6 59 48% 81 29.67 0.0
04 13:15 S 17 10.00 Fair CLR 80.6 57.2 45% 81 29.67 0.0
04 12:55 S 16 G 22 10.00 Fair CLR 78.8 57.2 48% 80 29.68 0.0
04 12:35 SW 17 10.00 Fair CLR 78.8 57.2 48% 80 29.68 0.0
04 12:15 S 18 10.00 Fair CLR 77 57.2 51% 79 29.68 0.0
04 11:55 S 20 G 25 10.00 Fair CLR 77 57.2 51% 79 29.69 0.0
04 11:35 SW 15 10.00 Fair CLR 77 57.2 51% 79 29.69 0.0
04 11:15 S 17 G 29 10.00 Fair CLR 75.2 57.2 54% 78 29.7 0.0
04 10:55 S 16 G 24 10.00 Fair CLR 75.2 55.4 50% 78 29.69 0.0
04 10:35 S 18 G 24 10.00 Fair CLR 73.4 55.4 53% 29.7 0.0
04 10:15 S 17 10.00 Fair CLR 73.4 55.4 53% 29.7 0.0
04 09:55 S 18 G 25 10.00 Fair CLR 71.6 53.6 53% 29.71 0.0
04 09:35 S 18 10.00 Fair CLR 69.8 53.6 57% 29.71 0.0
04 09:15 S 16 G 23 10.00 Fair CLR 69.8 53.6 57% 29.71 0.0
04 08:55 S 14 10.00 Fair CLR 68 51.8 56% 29.72 0.0
04 08:35 S 15 G 24 10.00 Fair CLR 66.2 50 56% 29.72 0.0
04 08:15 S 15 G 22 10.00 Fair CLR 64.4 50 60% 29.72 0.0
04 07:55 S 16 10.00 Fair CLR 62.6 50 64% 29.72 0.0
04 07:35 S 15 10.00 Fair CLR 62.6 48.2 60% 29.73 0.0
04 07:15 S 13 10.00 Fair CLR 60.8 48.2 63% 29.73 0.0
04 06:55 S 12 10.00 Fair CLR 59 48.2 68% 29.73 0.0
04 06:35 S 12 10.00 Fair CLR 57.2 48.2 72% 29.73 0.0
04 06:15 S 9 10.00 Fair CLR 57.2 48.2 72% 29.73 0.0
04 05:55 S 10 10.00 Fair CLR 57.2 48.2 72% 29.73 0.0
04 05:35 S 10 10.00 Fair CLR 59 46.4 63% 29.74 0.0
04 05:15 S 13 10.00 Fair CLR 62.6 46.4 56% 29.74 0.0
04 04:55 S 13 10.00 Fair CLR 62.6 46.4 56% 29.75 0.0
04 04:15 S 14 10.00 Fair CLR 64.4 46.4 52% 29.75 0.0
04 03:55 S 14 10.00 Fair CLR 64.4 46.4 52% 29.76 0.0
04 03:35 S 13 10.00 Fair CLR 64.4 46.4 52% 29.76 0.0
04 03:15 S 15 10.00 Fair CLR 64.4 46.4 52% 29.76 0.0
04 02:55 S 13 10.00 Fair CLR 66.2 46.4 49% 29.77 0.0
04 02:35 S 13 10.00 Fair CLR 66.2 46.4 49% 29.77 0.0
04 02:15 S 15 10.00 Fair CLR 66.2 44.6 46% 29.78 0.0
04 01:55 S 16 10.00 Fair CLR 68 44.6 43% 29.79 0.0
04 01:35 S 17 G 24 10.00 Fair CLR 68 46.4 46% 29.8 0.0
04 01:15 S 16 G 22 10.00 Fair CLR 68 46.4 46% 29.8 0.0
04 00:55 S 16 G 24 10.00 Fair CLR 68 46.4 46% 29.8 0.0
04 00:35 S 17 10.00 Fair CLR 69.8 46.4 43% 29.8 0.0
04 00:15 S 15 10.00 Fair CLR 68 46.4 46% 29.8 0.0
03 23:55 S 16 G 23 10.00 Fair CLR 69.8 46.4 43% 29.81 0.0
03 23:35 S 13 G 21 10.00 Fair CLR 69.8 46.4 43% 29.81 0.0
03 23:15 S 14 10.00 Fair CLR 69.8 46.4 43% 29.81 0.0
03 22:55 S 14 10.00 Fair CLR 69.8 46.4 43% 29.82 0.0
03 22:35 S 13 10.00 Fair CLR 69.8 46.4 43% 29.82 0.0
03 22:15 S 14 10.00 Fair CLR 69.8 46.4 43% 29.82 0.0
03 21:55 S 13 G 21 10.00 Fair CLR 71.6 46.4 41% 29.81 0.0
03 21:35 S 13 10.00 Fair CLR 69.8 46.4 43% 29.81 0.0
03 21:15 S 13 10.00 Fair CLR 69.8 46.4 43% 29.8 0.0
03 20:55 S 10 10.00 Fair CLR 69.8 46.4 43% 29.8 0.0
03 20:35 S 10 10.00 Fair CLR 69.8 46.4 43% 29.8 0.0
03 20:15 S 9 10.00 Fair CLR 69.8 46.4 43% 29.8 0.0
03 19:55 SW 10 10.00 Fair CLR 71.6 46.4 41% 29.8 0.0
03 19:35 S 9 10.00 Fair CLR 73.4 48.2 41% 29.81 0.0
03 19:15 SW 9 10.00 Fair CLR 77 48.2 36% 78 29.81 0.0
03 18:55 S 9 10.00 Fair CLR 78.8 50 37% 79 29.81 0.0
03 18:35 SW 10 10.00 Fair CLR 80.6 48.2 32% 80 29.81 0.0
03 18:15 SW 13 10.00 Fair CLR 80.6 44.6 28% 79 29.82 0.0
03 17:55 SW 17 10.00 Fair CLR 82.4 44.6 26% 81 29.83 0.0
03 17:35 SW 16 G 24 10.00 Fair CLR 82.4 42.8 25% 80 29.84 0.0
03 17:15 SW 20 G 24 10.00 Fair CLR 82.4 44.6 26% 81 29.84 0.0
03 16:55 SW 16 G 24 10.00 Fair CLR 82.4 44.6 26% 81 29.85 0.0
03 16:35 SW 17 10.00 Fair CLR 82.4 44.6 26% 81 29.85 0.0
03 16:15 SW 20 G 23 10.00 Fair CLR 82.4 46.4 28% 81 29.86 0.0
03 15:55 SW 18 G 23 10.00 Fair CLR 82.4 48.2 30% 81 29.87 0.0
03 15:35 SW 18 G 22 10.00 Fair CLR 82.4 50 32% 81 29.88 0.0
03 15:15 SW 17 G 28 10.00 Fair CLR 82.4 50 32% 81 29.89 0.0
03 14:55 SW 15 G 22 10.00 Fair CLR 80.6 50 34% 80 29.9 0.0
03 14:35 S 15 10.00 Fair CLR 80.6 55.4 42% 81 29.91 0.0
03 14:15 S 14 G 18 10.00 Fair CLR 78.8 53.6 42% 79 29.92 0.0
03 13:35 S 10 10.00 Fair CLR 78.8 55.4 45% 79 29.94 0.0
03 13:15 S 10 10.00 Fair CLR 77 55.4 47% 79 29.95 0.0
03 12:55 SW 13 G 20 10.00 Fair CLR 75.2 53.6 47% 78 29.96 0.0
03 12:35 SW 12 10.00 Fair CLR 75.2 55.4 50% 78 29.97 0.0
03 12:15 S 14 10.00 Fair CLR 73.4 55.4 53% 29.97 0.0
03 11:55 S 14 10.00 Fair CLR 73.4 53.6 50% 29.99 0.0
03 11:35 S 13 10.00 Fair CLR 69.8 53.6 57% 29.99 0.0
03 11:15 S 14 10.00 Fair CLR 69.8 51.8 53% 29.99 0.0
03 10:55 S 15 10.00 Fair CLR 68 50 53% 29.99 0.0
03 10:35 S 15 10.00 Fair CLR 66.2 50 56% 30 0.0
Date Time (cdt) Wind (mph) Vis. (mi.) Weather Sky Cond. Air Dwpt Max. Min. Relative Humidity Wind Chill (°F) Heat Index (°F) altimeter (in) sea level (mb) 1 hr 3 hr 6 hr
6 hour
Temperature (ºF) Pressure Precipitation (in)